createdAt,value
2023-03-11T00:00:35.786Z,3.235
2023-03-11T00:01:35.157Z,3.25
2023-03-11T00:02:35.051Z,3.247
2023-03-11T00:04:01.596Z,3.273
2023-03-11T00:04:34.498Z,3.285
2023-03-11T00:05:35.107Z,3.298
2023-03-11T00:06:34.618Z,3.301
2023-03-11T00:07:34.806Z,3.279
2023-03-11T00:08:35.118Z,3.265
2023-03-11T00:09:34.700Z,3.269
2023-03-11T00:10:35.310Z,3.251
2023-03-11T00:11:34.123Z,3.263
2023-03-11T00:12:35.447Z,3.261
2023-03-11T00:13:35.597Z,3.221
2023-03-11T00:14:34.694Z,3.200
2023-03-11T00:15:35.347Z,3.236
2023-03-11T00:16:34.870Z,3.228
2023-03-11T00:17:35.087Z,3.233
2023-03-11T00:18:34.876Z,3.233
2023-03-11T00:19:34.622Z,3.251
2023-03-11T00:20:35.311Z,3.231
2023-03-11T00:21:34.912Z,3.241
2023-03-11T00:22:34.831Z,3.243
2023-03-11T00:23:34.658Z,3.244
2023-03-11T00:24:34.650Z,3.261
2023-03-11T00:25:35.753Z,3.253
2023-03-11T00:26:34.935Z,3.228
2023-03-11T00:27:35.539Z,3.224
2023-03-11T00:28:34.892Z,3.230
2023-03-11T00:29:35.358Z,3.223
2023-03-11T00:30:35.506Z,3.206
2023-03-11T00:31:34.697Z,3.193
2023-03-11T00:32:35.246Z,3.196
2023-03-11T00:33:34.431Z,3.174
2023-03-11T00:34:34.840Z,3.166
2023-03-11T00:35:35.523Z,3.171
2023-03-11T00:36:35.038Z,3.158
2023-03-11T00:37:34.415Z,3.144
2023-03-11T00:38:34.803Z,3.163
2023-03-11T00:39:34.768Z,3.170
2023-03-11T00:40:35.316Z,3.186
2023-03-11T00:41:34.930Z,3.191
2023-03-11T00:42:35.176Z,3.170
2023-03-11T00:43:34.499Z,3.193
2023-03-11T00:44:34.183Z,3.174
2023-03-11T00:45:35.602Z,3.193
2023-03-11T00:46:34.531Z,3.200
2023-03-11T00:47:34.731Z,3.193
2023-03-11T00:48:34.884Z,3.180
2023-03-11T00:49:34.607Z,3.191
2023-03-11T00:50:34.881Z,3.201
2023-03-11T00:51:35.242Z,3.186
2023-03-11T00:52:34.868Z,3.164
2023-03-11T00:53:35.433Z,3.153
2023-03-11T00:54:34.052Z,3.190
2023-03-11T00:55:34.916Z,3.183
2023-03-11T00:56:34.842Z,3.196
2023-03-11T00:57:34.718Z,3.196
2023-03-11T00:58:34.560Z,3.194
2023-03-11T00:59:34.952Z,3.180
2023-03-11T01:00:36.699Z,3.171
2023-03-11T01:01:39.835Z,3.154
2023-03-11T01:02:35.200Z,3.153
2023-03-11T01:03:34.783Z,3.170
2023-03-11T01:04:35.148Z,3.153
2023-03-11T01:05:34.972Z,3.150
2023-03-11T01:06:45.197Z,3.183
2023-03-11T01:07:35.247Z,3.171
2023-03-11T01:08:35.305Z,3.158
2023-03-11T01:09:34.866Z,3.158
2023-03-11T01:10:36.225Z,3.160
2023-03-11T01:11:34.966Z,3.143
2023-03-11T01:12:35.360Z,3.161
2023-03-11T01:13:35.396Z,3.160
2023-03-11T01:14:35.472Z,3.140
2023-03-11T01:15:35.016Z,3.161
2023-03-11T01:16:34.927Z,3.188
2023-03-11T01:17:35.174Z,3.188
2023-03-11T01:18:34.666Z,3.218
2023-03-11T01:19:35.048Z,3.204
2023-03-11T01:20:35.209Z,3.191
2023-03-11T01:21:34.994Z,3.180
2023-03-11T01:22:34.449Z,3.198
2023-03-11T01:23:34.892Z,3.190
2023-03-11T01:24:35.149Z,3.184
2023-03-11T01:25:35.465Z,3.176
2023-03-11T01:26:34.816Z,3.180
2023-03-11T01:27:34.760Z,3.180
2023-03-11T01:28:34.893Z,3.164
2023-03-11T01:29:34.813Z,3.200
2023-03-11T01:30:35.281Z,3.205
2023-03-11T01:31:35.206Z,3.194
2023-03-11T01:32:34.484Z,3.201
2023-03-11T01:33:35.335Z,3.201
2023-03-11T01:34:35.099Z,3.206
2023-03-11T01:35:34.768Z,3.206
2023-03-11T01:36:35.647Z,3.201
2023-03-11T01:37:34.818Z,3.187
2023-03-11T01:38:34.597Z,3.192
2023-03-11T01:39:35.238Z,3.164
2023-03-11T01:40:34.645Z,3.163
2023-03-11T01:41:34.755Z,3.168
2023-03-11T01:42:35.256Z,3.177
2023-03-11T01:43:34.759Z,3.196
2023-03-11T01:44:34.775Z,3.211
2023-03-11T01:45:35.924Z,3.210
2023-03-11T01:46:34.817Z,3.206
2023-03-11T01:47:35.038Z,3.178
2023-03-11T01:48:34.812Z,3.171
2023-03-11T01:49:34.674Z,3.138
2023-03-11T01:50:34.867Z,3.151
2023-03-11T01:51:35.303Z,3.150
2023-03-11T01:52:39.992Z,3.163
2023-03-11T01:53:34.612Z,3.151
2023-03-11T01:54:34.896Z,3.144
2023-03-11T01:55:35.287Z,3.140
2023-03-11T01:56:34.552Z,3.109
2023-03-11T01:57:34.676Z,3.103
2023-03-11T01:58:34.907Z,3.126
2023-03-11T01:59:35.269Z,3.106
2023-03-11T02:01:38.063Z,3.095
2023-03-11T02:02:34.861Z,3.095
2023-03-11T02:03:35.340Z,3.078
2023-03-11T02:04:34.772Z,3.076
2023-03-11T02:05:34.830Z,3.085
2023-03-11T02:06:35.360Z,3.091
2023-03-11T02:07:34.671Z,3.068
2023-03-11T02:08:34.934Z,3.069
2023-03-11T02:09:35.022Z,3.085
2023-03-11T02:10:34.827Z,3.073
2023-03-11T02:11:35.378Z,3.068
2023-03-11T02:12:34.906Z,3.059
2023-03-11T02:13:35.217Z,3.056
2023-03-11T02:14:34.982Z,3.063
2023-03-11T02:15:34.932Z,3.059
2023-03-11T02:16:35.517Z,3.058
2023-03-11T02:17:35.308Z,3.063
2023-03-11T02:18:35.165Z,3.063
2023-03-11T02:19:34.754Z,3.063
2023-03-11T02:20:35.572Z,3.051
2023-03-11T02:21:35.246Z,3.046
2023-03-11T02:22:34.885Z,3.066
2023-03-11T02:23:35.134Z,3.039
2023-03-11T02:24:34.120Z,3.035
2023-03-11T02:25:34.858Z,3.026
2023-03-11T02:26:34.100Z,3.025
2023-03-11T02:27:34.279Z,3.025
2023-03-11T02:28:34.281Z,3.043
2023-03-11T02:29:34.505Z,3.033
2023-03-11T02:30:35.189Z,3.048
2023-03-11T02:31:34.356Z,3.055
2023-03-11T02:32:35.174Z,3.041
2023-03-11T02:33:34.513Z,3.038
2023-03-11T02:34:34.293Z,3.025
2023-03-11T02:35:35.031Z,2.991
2023-03-11T02:36:34.696Z,3.003
2023-03-11T02:37:35.304Z,3.011
2023-03-11T02:38:34.043Z,3.016
2023-03-11T02:39:34.114Z,3
2023-03-11T02:40:34.588Z,2.994
2023-03-11T02:41:35.049Z,2.973
2023-03-11T02:42:34.730Z,2.951
2023-03-11T02:43:34.959Z,2.940
2023-03-11T02:44:34.366Z,2.934
2023-03-11T02:45:34.930Z,2.948
2023-03-11T02:46:35.088Z,2.931
2023-03-11T02:47:34.610Z,2.891
2023-03-11T02:48:35.220Z,2.873
2023-03-11T02:49:34.496Z,2.878
2023-03-11T02:50:34.895Z,2.875
2023-03-11T02:51:34.995Z,2.881
2023-03-11T02:52:34.650Z,2.865
2023-03-11T02:53:35.122Z,2.861
2023-03-11T02:54:34.151Z,2.856
2023-03-11T02:55:34.510Z,2.839
2023-03-11T02:56:34.877Z,2.835
2023-03-11T02:57:35.267Z,2.829
2023-03-11T02:58:34.792Z,2.848
2023-03-11T02:59:34.434Z,2.834
2023-03-11T03:01:34.803Z,2.813
2023-03-11T03:02:35.150Z,2.812
2023-03-11T03:03:34.603Z,2.798
2023-03-11T03:04:34.820Z,2.801
2023-03-11T03:05:35.204Z,2.809
2023-03-11T03:06:34.348Z,2.798
2023-03-11T03:07:34.332Z,2.789
2023-03-11T03:08:34.660Z,2.759
2023-03-11T03:09:35.412Z,2.733
2023-03-11T03:10:35.563Z,2.732
2023-03-11T03:11:34.875Z,2.726
2023-03-11T03:12:34.857Z,2.720
2023-03-11T03:13:35.561Z,2.711
2023-03-11T03:14:34.404Z,2.712
2023-03-11T03:15:34.693Z,2.687
2023-03-11T03:16:35.789Z,2.693
2023-03-11T03:17:34.872Z,2.688
2023-03-11T03:18:34.804Z,2.666
2023-03-11T03:19:34.744Z,2.666
2023-03-11T03:20:35.097Z,2.666
2023-03-11T03:21:34.746Z,2.651
2023-03-11T03:22:36.047Z,2.638
2023-03-11T03:23:34.088Z,2.628
2023-03-11T03:24:33.820Z,2.625
2023-03-11T03:25:34.642Z,2.621
2023-03-11T03:26:34.705Z,2.601
2023-03-11T03:27:35.236Z,2.593
2023-03-11T03:28:34.523Z,2.603
2023-03-11T03:29:34.306Z,2.588
2023-03-11T03:30:34.933Z,2.575
2023-03-11T03:31:34.966Z,2.571
2023-03-11T03:32:34.477Z,2.548
2023-03-11T03:33:35.019Z,2.549
2023-03-11T03:34:34.765Z,2.546
2023-03-11T03:35:34.802Z,2.516
2023-03-11T03:36:35.278Z,2.519
2023-03-11T03:37:34.375Z,2.528
2023-03-11T03:38:34.563Z,2.516
2023-03-11T03:39:34.322Z,2.496
2023-03-11T03:40:34.659Z,2.5
2023-03-11T03:41:35.127Z,2.498
2023-03-11T03:42:34.514Z,2.491
2023-03-11T03:43:34.780Z,2.478
2023-03-11T03:44:34.642Z,2.461
2023-03-11T03:45:35.128Z,2.456
2023-03-11T03:46:34.847Z,2.446
2023-03-11T03:47:34.902Z,2.466
2023-03-11T03:48:34.940Z,2.464
2023-03-11T03:49:35.143Z,2.443
2023-03-11T03:50:34.337Z,2.426
2023-03-11T03:51:35.058Z,2.401
2023-03-11T03:52:34.655Z,2.413
2023-03-11T03:53:35.431Z,2.414
2023-03-11T03:54:34.293Z,2.396
2023-03-11T03:55:35.513Z,2.381
2023-03-11T03:56:34.635Z,2.380
2023-03-11T03:57:34.259Z,2.388
2023-03-11T03:58:34.353Z,2.351
2023-03-11T03:59:34.198Z,2.365
2023-03-11T04:00:36.347Z,2.381
2023-03-11T04:01:36.026Z,2.359
2023-03-11T04:02:35.125Z,2.348
2023-03-11T04:03:35.124Z,2.351
2023-03-11T04:04:35.303Z,2.345
2023-03-11T04:05:34.681Z,2.323
2023-03-11T04:06:35.496Z,2.305
2023-03-11T04:07:34.908Z,2.303
2023-03-11T04:08:35.093Z,2.288
2023-03-11T04:09:34.952Z,2.275
2023-03-11T04:10:35.403Z,2.248
2023-03-11T04:11:35.683Z,2.263
2023-03-11T04:12:35.150Z,2.283
2023-03-11T04:13:34.844Z,2.285
2023-03-11T04:14:34.881Z,2.263
2023-03-11T04:15:35.351Z,2.256
2023-03-11T04:16:34.994Z,2.251
2023-03-11T04:17:39.949Z,2.226
2023-03-11T04:18:35.546Z,2.236
2023-03-11T04:19:35.138Z,2.236
2023-03-11T04:20:35.005Z,2.221
2023-03-11T04:21:34.493Z,2.200
2023-03-11T04:22:34.811Z,2.198
2023-03-11T04:23:35.162Z,2.180
2023-03-11T04:24:34.604Z,2.190
2023-03-11T04:25:35.717Z,2.181
2023-03-11T04:26:35.785Z,2.176
2023-03-11T04:27:35.462Z,2.168
2023-03-11T04:28:34.925Z,2.176
2023-03-11T04:29:34.871Z,2.174
2023-03-11T04:30:35.253Z,2.174
2023-03-11T04:31:34.352Z,2.160
2023-03-11T04:32:34.718Z,2.140
2023-03-11T04:33:34.858Z,2.151
2023-03-11T04:34:34.708Z,2.154
2023-03-11T04:35:34.780Z,2.154
2023-03-11T04:36:35.165Z,2.138
2023-03-11T04:37:34.340Z,2.109
2023-03-11T04:38:34.532Z,2.101
2023-03-11T04:39:34.896Z,2.092
2023-03-11T04:40:35.614Z,2.072
2023-03-11T04:41:34.728Z,2.068
2023-03-11T04:42:35.051Z,2.084
2023-03-11T04:43:48.565Z,2.099
2023-03-11T04:44:34.965Z,2.103
2023-03-11T04:45:35.591Z,2.093
2023-03-11T04:46:34.926Z,2.086
2023-03-11T04:47:34.370Z,2.088
2023-03-11T04:48:34.467Z,2.096
2023-03-11T04:49:34.653Z,2.079
2023-03-11T04:50:35.322Z,2.055
2023-03-11T04:51:34.951Z,2.051
2023-03-11T04:52:34.494Z,1.997
2023-03-11T04:53:35.172Z,1.996
2023-03-11T04:54:35.036Z,2.011
2023-03-11T04:55:34.876Z,2.009
2023-03-11T04:56:35.683Z,1.998
2023-03-11T04:57:35.170Z,1.961
2023-03-11T04:58:34.896Z,1.961
2023-03-11T04:59:35.575Z,1.941
2023-03-11T05:00:36.432Z,1.960
2023-03-11T05:01:35.594Z,1.968
2023-03-11T05:02:35.431Z,1.955
2023-03-11T05:03:34.972Z,1.960
2023-03-11T05:04:34.677Z,1.945
2023-03-11T05:05:35.059Z,1.950
2023-03-11T05:06:34.503Z,1.941
2023-03-11T05:07:35.414Z,1.940
2023-03-11T05:08:34.899Z,1.919
2023-03-11T05:09:34.812Z,1.909
2023-03-11T05:10:35.952Z,1.909
2023-03-11T05:11:35.225Z,1.909
2023-03-11T05:12:34.608Z,1.899
2023-03-11T05:13:35.031Z,1.908
2023-03-11T05:14:34.463Z,1.896
2023-03-11T05:15:35.549Z,1.881
2023-03-11T05:16:35.480Z,1.841
2023-03-11T05:17:34.577Z,1.815
2023-03-11T05:18:35.418Z,1.794
2023-03-11T05:19:34.741Z,1.776
2023-03-11T05:20:35.324Z,1.774
2023-03-11T05:21:35.129Z,1.769
2023-03-11T05:22:34.937Z,1.728
2023-03-11T05:23:35.120Z,1.721
2023-03-11T05:24:34.917Z,1.700
2023-03-11T05:25:35.901Z,1.701
2023-03-11T05:26:34.895Z,1.698
2023-03-11T05:27:34.932Z,1.683
2023-03-11T05:28:35.433Z,1.688
2023-03-11T05:29:35.116Z,1.666
2023-03-11T05:30:34.893Z,1.631
2023-03-11T05:31:35.281Z,1.639
2023-03-11T05:32:35.150Z,1.644
2023-03-11T05:33:34.693Z,1.618
2023-03-11T05:34:35.263Z,1.596
2023-03-11T05:35:35.222Z,1.591
2023-03-11T05:36:34.848Z,1.590
2023-03-11T05:37:35.201Z,1.580
2023-03-11T05:38:35.054Z,1.575
2023-03-11T05:39:35.199Z,1.548
2023-03-11T05:40:35.239Z,1.536
2023-03-11T05:41:35.151Z,1.546
2023-03-11T05:42:34.873Z,1.551
2023-03-11T05:43:35.486Z,1.541
2023-03-11T05:44:35.055Z,1.538
2023-03-11T05:45:35.001Z,1.529
2023-03-11T05:46:35.630Z,1.523
2023-03-11T05:47:35.273Z,1.521
2023-03-11T05:48:35.473Z,1.523
2023-03-11T05:49:34.842Z,1.518
2023-03-11T05:50:35.088Z,1.506
2023-03-11T05:51:34.796Z,1.534
2023-03-11T05:52:35.864Z,1.529
2023-03-11T05:53:35.562Z,1.523
2023-03-11T05:54:34.619Z,1.503
2023-03-11T05:55:35.300Z,1.518
2023-03-11T05:56:34.740Z,1.519
2023-03-11T05:57:35.452Z,1.526
2023-03-11T05:58:34.719Z,1.538
2023-03-11T05:59:35.432Z,1.548
2023-03-11T06:00:37.017Z,1.553
2023-03-11T06:01:35.283Z,1.556
2023-03-11T06:02:34.517Z,1.570
2023-03-11T06:03:35.039Z,1.566
2023-03-11T06:04:35.107Z,1.568
2023-03-11T06:05:35.397Z,1.588
2023-03-11T06:06:35.053Z,1.600
2023-03-11T06:07:34.751Z,1.598
2023-03-11T06:08:35.233Z,1.604
2023-03-11T06:09:34.598Z,1.598
2023-03-11T06:10:35.700Z,1.583
2023-03-11T06:11:37.232Z,1.565
2023-03-11T06:12:35.200Z,1.585
2023-03-11T06:13:35.884Z,1.585
2023-03-11T06:14:36.422Z,1.573
2023-03-11T06:15:35.565Z,1.585
2023-03-11T06:16:36.113Z,1.594
2023-03-11T06:17:34.976Z,1.600
2023-03-11T06:18:35.341Z,1.573
2023-03-11T06:19:35.017Z,1.588
2023-03-11T06:20:34.756Z,1.582
2023-03-11T06:21:34.986Z,1.592
2023-03-11T06:22:35.008Z,1.581
2023-03-11T06:23:34.671Z,1.570
2023-03-11T06:24:35.206Z,1.585
2023-03-11T06:25:35.439Z,1.582
2023-03-11T06:26:35.536Z,1.580
2023-03-11T06:27:35.785Z,1.558
2023-03-11T06:28:35.662Z,1.568
2023-03-11T06:29:35.059Z,1.549
2023-03-11T06:30:35.433Z,1.559
2023-03-11T06:31:35.497Z,1.565
2023-03-11T06:32:35.840Z,1.565
2023-03-11T06:33:35.862Z,1.581
2023-03-11T06:34:35.666Z,1.568
2023-03-11T06:35:35.300Z,1.591
2023-03-11T06:36:35.568Z,1.598
2023-03-11T06:37:36.253Z,1.629
2023-03-11T06:38:37.365Z,1.638
2023-03-11T06:39:35.439Z,1.654
2023-03-11T06:40:35.084Z,1.643
2023-03-11T06:41:34.747Z,1.644
2023-03-11T06:42:35.225Z,1.671
2023-03-11T06:43:34.189Z,1.648
2023-03-11T06:44:35.365Z,1.639
2023-03-11T06:45:35.346Z,1.666
2023-03-11T06:46:34.758Z,1.696
2023-03-11T06:47:35.117Z,1.691
2023-03-11T06:48:34.945Z,1.703
2023-03-11T06:49:35.872Z,1.686
2023-03-11T06:50:36.359Z,1.686
2023-03-11T06:51:35.571Z,1.705
2023-03-11T06:52:34.935Z,1.686
2023-03-11T06:53:35.740Z,1.654
2023-03-11T06:54:35.100Z,1.684
2023-03-11T06:55:36.393Z,1.681
2023-03-11T06:56:36.053Z,1.691
2023-03-11T06:57:35.562Z,1.723
2023-03-11T06:58:36.259Z,1.735
2023-03-11T06:59:35.183Z,1.738
2023-03-11T07:01:06.677Z,1.786
2023-03-11T07:01:37.914Z,1.808
2023-03-11T07:02:35.636Z,1.831
2023-03-11T07:03:35.848Z,1.851
2023-03-11T07:04:35.481Z,1.870
2023-03-11T07:05:35.411Z,1.848
2023-03-11T07:06:35.806Z,1.856
2023-03-11T07:07:36.207Z,1.848
2023-03-11T07:08:36.211Z,1.863
2023-03-11T07:09:35.652Z,1.888
2023-03-11T07:10:36.919Z,1.909
2023-03-11T07:11:35.746Z,1.929
2023-03-11T07:12:36.953Z,1.913
2023-03-11T07:13:35.750Z,1.919
2023-03-11T07:14:36.873Z,1.908
2023-03-11T07:15:36.372Z,1.948
2023-03-11T07:16:36.145Z,2.001
2023-03-11T07:17:36.020Z,2.006
2023-03-11T07:18:35.917Z,1.985
2023-03-11T07:19:36.308Z,2.026
2023-03-11T07:20:36.101Z,2.038
2023-03-11T07:21:35.778Z,2.001
2023-03-11T07:22:36.326Z,1.988
2023-03-11T07:23:35.703Z,2.006
2023-03-11T07:24:36.341Z,2
2023-03-11T07:25:36.070Z,2.058
2023-03-11T07:26:36.426Z,2.099
2023-03-11T07:27:37.177Z,2.133
2023-03-11T07:28:35.642Z,2.153
2023-03-11T07:29:35.778Z,2.134
2023-03-11T07:30:36.820Z,2.125
2023-03-11T07:31:36.529Z,2.144
2023-03-11T07:32:35.864Z,2.166
2023-03-11T07:33:36.183Z,2.226
2023-03-11T07:34:35.371Z,2.258
2023-03-11T07:35:35.766Z,2.247
2023-03-11T07:36:36.095Z,2.240
2023-03-11T07:37:36.008Z,2.292
2023-03-11T07:38:35.299Z,2.329
2023-03-11T07:39:36.142Z,2.309
2023-03-11T07:40:35.659Z,2.325
2023-03-11T07:41:35.873Z,2.288
2023-03-11T07:42:35.699Z,2.252
2023-03-11T07:43:35.091Z,2.232
2023-03-11T07:44:35.392Z,2.224
2023-03-11T07:45:35.660Z,2.253
2023-03-11T07:46:35.533Z,2.268
2023-03-11T07:47:35.809Z,2.309
2023-03-11T07:48:36.005Z,2.314
2023-03-11T07:49:35.157Z,2.323
2023-03-11T07:51:34.936Z,2.364
2023-03-11T07:52:36.426Z,2.339
2023-03-11T07:53:35.775Z,2.356
2023-03-11T07:54:35.757Z,2.313
2023-03-11T07:55:36.297Z,2.373
2023-03-11T07:56:35.288Z,2.434
2023-03-11T07:57:35.193Z,2.456
2023-03-11T07:58:35.308Z,2.447
2023-03-11T07:59:35.090Z,2.497
2023-03-11T08:00:36.548Z,2.471
2023-03-11T08:01:36.331Z,2.421
2023-03-11T08:02:35.665Z,2.456
2023-03-11T08:03:36.782Z,2.519
2023-03-11T08:04:36.048Z,2.483
2023-03-11T08:05:36.531Z,2.496
2023-03-11T08:06:36.324Z,2.516
2023-03-11T08:07:38.946Z,2.516
2023-03-11T08:08:36.405Z,2.501
2023-03-11T08:09:35.424Z,2.516
2023-03-11T08:10:36.531Z,2.486
2023-03-11T08:11:36.817Z,2.476
2023-03-11T08:12:36.664Z,2.509
2023-03-11T08:13:38.611Z,2.615
2023-03-11T08:14:35.970Z,2.657
2023-03-11T08:15:37.070Z,2.700
2023-03-11T08:16:36.283Z,2.718
2023-03-11T08:17:35.742Z,2.671
2023-03-11T08:18:36.555Z,2.654
2023-03-11T08:19:35.931Z,2.680
2023-03-11T08:20:35.977Z,2.741
2023-03-11T08:21:35.211Z,2.815
2023-03-11T08:22:38.071Z,2.815
2023-03-11T08:23:36.708Z,2.813
2023-03-11T08:24:36.897Z,2.843
2023-03-11T08:25:36.498Z,2.894
2023-03-11T08:26:36.189Z,2.865
2023-03-11T08:27:36.061Z,2.914
2023-03-11T08:28:35.761Z,2.921
2023-03-11T08:29:36.226Z,2.971
2023-03-11T08:30:35.971Z,2.970
2023-03-11T08:31:37.318Z,3.015
2023-03-11T08:32:36.840Z,3.099
2023-03-11T08:33:41.515Z,3.078
2023-03-11T08:34:35.761Z,3.036
2023-03-11T08:35:36.656Z,2.981
2023-03-11T08:36:36.746Z,2.970
2023-03-11T08:37:37.980Z,2.973
2023-03-11T08:38:35.894Z,3.028
2023-03-11T08:39:35.830Z,3.113
2023-03-11T08:40:36.429Z,3.078
2023-03-11T08:41:35.901Z,3.043
2023-03-11T08:42:37.228Z,3.033
2023-03-11T08:43:35.912Z,3.073
2023-03-11T08:46:36.074Z,3.123
2023-03-11T08:47:35.557Z,3.158
2023-03-11T08:48:36.092Z,3.203
2023-03-11T08:49:35.332Z,3.289
2023-03-11T08:50:47.440Z,3.348
2023-03-11T08:51:35.613Z,3.349
2023-03-11T08:52:36.023Z,3.286
2023-03-11T08:53:35.905Z,3.325
2023-03-11T08:54:36.138Z,3.371
2023-03-11T08:55:35.922Z,3.416
2023-03-11T08:56:36.803Z,3.431
2023-03-11T08:57:36.445Z,3.431
2023-03-11T08:58:36.542Z,3.448
2023-03-11T08:59:36.260Z,3.441
2023-03-11T09:00:37.535Z,3.404
2023-03-11T09:01:36.672Z,3.421
2023-03-11T09:02:36.845Z,3.466
2023-03-11T09:03:36.133Z,3.548
2023-03-11T09:04:35.306Z,3.504
2023-03-11T09:05:41.266Z,3.505
2023-03-11T09:06:36.017Z,3.542
2023-03-11T09:07:35.568Z,3.611
2023-03-11T09:08:36.126Z,3.680
2023-03-11T09:09:41.125Z,3.690
2023-03-11T09:10:36.227Z,3.661
2023-03-11T09:11:40.389Z,3.625
2023-03-11T09:12:35.555Z,3.640
2023-03-11T09:13:36.380Z,3.686
2023-03-11T09:14:35.526Z,3.748
2023-03-11T09:15:36.858Z,3.793
2023-03-11T09:16:36.841Z,3.789
2023-03-11T09:17:41.811Z,3.818
2023-03-11T09:18:36.715Z,3.755
2023-03-11T09:19:36.133Z,3.691
2023-03-11T09:20:36.125Z,3.718
2023-03-11T09:21:36.355Z,3.746
2023-03-11T09:22:35.884Z,3.727
2023-03-11T09:23:37.069Z,3.733
2023-03-11T09:24:35.385Z,3.771
2023-03-11T09:26:06.050Z,3.767
2023-03-11T09:26:37.444Z,3.720
2023-03-11T09:27:35.858Z,3.773
2023-03-11T09:28:36.458Z,3.783
2023-03-11T09:29:50.062Z,3.868
2023-03-11T09:30:35.237Z,3.930
2023-03-11T09:31:35.617Z,3.893
2023-03-11T09:32:36.473Z,3.888
2023-03-11T09:33:49.834Z,3.936
2023-03-11T09:34:36.335Z,3.928
2023-03-11T09:35:35.679Z,3.966
2023-03-11T09:36:36.237Z,3.940
2023-03-11T09:38:05.840Z,4.021
2023-03-11T09:38:37.569Z,4.086
2023-03-11T09:39:36.312Z,4.111
2023-03-11T09:40:36.171Z,4.348
2023-03-11T09:41:42.395Z,4.296
2023-03-11T09:42:36.032Z,4.296
2023-03-11T09:43:54.885Z,4.282
2023-03-11T09:44:36.564Z,4.186
2023-03-11T09:46:05.801Z,4.155
2023-03-11T09:46:37.243Z,4.186
2023-03-11T09:47:35.705Z,4.239
2023-03-11T09:48:36.848Z,4.221
2023-03-11T09:49:35.967Z,4.164
2023-03-11T09:50:36.886Z,4.108
2023-03-11T09:51:36.202Z,4.106
2023-03-11T09:52:35.850Z,4.230
2023-03-11T09:53:36.513Z,4.258
2023-03-11T09:54:36.192Z,4.181
2023-03-11T09:55:36.214Z,4.133
2023-03-11T09:56:36.391Z,4.131
2023-03-11T09:57:35.724Z,4.190
2023-03-11T09:58:35.889Z,4.233
2023-03-11T09:59:36.705Z,4.223
2023-03-11T10:00:37.731Z,4.176
2023-03-11T10:01:35.755Z,4.139
2023-03-11T10:02:36.654Z,4.078
2023-03-11T10:03:39.671Z,4.054
2023-03-11T10:04:36.059Z,4.078
2023-03-11T10:05:34.860Z,4.068
2023-03-11T10:06:36.466Z,4.076
2023-03-11T10:07:36.668Z,4.133
2023-03-11T10:08:36.244Z,4.236
2023-03-11T10:09:39.169Z,4.323
2023-03-11T10:10:36.805Z,4.338
2023-03-11T10:11:35.572Z,4.360
2023-03-11T10:12:35.816Z,4.368
2023-03-11T10:13:36.266Z,4.343
2023-03-11T10:14:35.665Z,4.300
2023-03-11T10:15:38.364Z,4.25
2023-03-11T10:16:35.929Z,4.266
2023-03-11T10:17:36.075Z,4.283
2023-03-11T10:18:35.854Z,4.295
2023-03-11T10:19:35.589Z,4.300
2023-03-11T10:20:36.268Z,4.300
2023-03-11T10:21:38.932Z,4.321
2023-03-11T10:22:35.757Z,4.316
2023-03-11T10:23:36.371Z,4.333
2023-03-11T10:24:36.118Z,4.368
2023-03-11T10:25:35.472Z,4.400
2023-03-11T10:26:35.725Z,4.371
2023-03-11T10:27:35.462Z,4.364
2023-03-11T10:28:35.909Z,4.360
2023-03-11T10:29:36.290Z,4.355
2023-03-11T10:30:35.943Z,4.356
2023-03-11T10:31:36.335Z,4.344
2023-03-11T10:32:35.713Z,4.366
2023-03-11T10:34:36.307Z,4.331
2023-03-11T10:35:35.894Z,4.335
2023-03-11T10:36:35.908Z,4.333
2023-03-11T10:37:48.255Z,4.341
2023-03-11T10:38:35.550Z,4.344
2023-03-11T10:39:35.901Z,4.349
2023-03-11T10:40:37.600Z,4.355
2023-03-11T10:41:36.291Z,4.349
2023-03-11T10:42:34.549Z,4.357
2023-03-11T10:43:35.985Z,4.342
2023-03-11T10:44:35.337Z,4.371
2023-03-11T10:45:36.053Z,4.381
2023-03-11T10:46:36.144Z,4.395
2023-03-11T10:47:35.611Z,4.400
2023-03-11T10:48:36.340Z,4.432
2023-03-11T10:49:36.149Z,4.441
2023-03-11T10:50:36.881Z,4.469
2023-03-11T10:51:37.456Z,4.494
2023-03-11T10:52:36.587Z,4.505
2023-03-11T10:53:36.441Z,4.551
2023-03-11T10:54:36.367Z,4.576
2023-03-11T10:55:36.244Z,4.625
2023-03-11T10:56:40.903Z,4.715
2023-03-11T10:57:36.328Z,4.786
2023-03-11T10:58:35.824Z,4.836
2023-03-11T10:59:38.065Z,4.798
2023-03-11T11:00:39.258Z,4.808
2023-03-11T11:01:38.400Z,4.751
2023-03-11T11:02:43.653Z,4.718
2023-03-11T11:03:38.198Z,4.743
2023-03-11T11:04:36.890Z,4.826
2023-03-11T11:05:37.547Z,4.869
2023-03-11T11:06:41.709Z,4.843
2023-03-11T11:07:36.847Z,4.835
2023-03-11T11:08:36.728Z,4.851
2023-03-11T11:09:38.299Z,4.873
2023-03-11T11:10:35.924Z,4.888
2023-03-11T11:11:36.592Z,4.925
2023-03-11T11:12:43.938Z,4.875
2023-03-11T11:13:36.743Z,4.829
2023-03-11T11:14:36.237Z,4.806
2023-03-11T11:15:37.029Z,4.871
2023-03-11T11:16:49.862Z,4.880
2023-03-11T11:17:36.763Z,4.921
2023-03-11T11:18:50.290Z,4.965
2023-03-11T11:19:36.005Z,4.908
2023-03-11T11:20:50.269Z,4.949
2023-03-11T11:21:36.154Z,4.960
2023-03-11T11:22:36.652Z,4.954
2023-03-11T11:23:36.569Z,4.991
2023-03-11T11:24:44.132Z,4.961
2023-03-11T11:26:49.960Z,4.980
2023-03-11T11:27:36.037Z,4.981
2023-03-11T11:28:35.884Z,5.014
2023-03-11T11:29:36.311Z,5
2023-03-11T11:30:54.354Z,5.021
2023-03-11T11:31:36.182Z,5.143
2023-03-11T11:32:35.864Z,5.155
2023-03-11T11:33:36.428Z,5.053
2023-03-11T11:34:36.824Z,5.054
2023-03-11T11:35:36.232Z,5.010
2023-03-11T11:36:54.126Z,4.980
2023-03-11T11:38:35.709Z,5.056
2023-03-11T11:39:35.487Z,5.045
2023-03-11T11:40:40.999Z,4.988
2023-03-11T11:41:35.036Z,4.991
2023-03-11T11:42:42.790Z,5.013
2023-03-11T11:43:36.303Z,5.046
2023-03-11T11:44:35.775Z,5.031
2023-03-11T11:45:36.267Z,5.033
2023-03-11T11:46:35.149Z,5.038
2023-03-11T11:47:35.520Z,5.046
2023-03-11T11:48:35.896Z,5.036
2023-03-11T11:49:35.934Z,5.081
2023-03-11T11:50:37.317Z,5.093
2023-03-11T11:51:35.977Z,5.099
2023-03-11T11:52:36.675Z,5.018
2023-03-11T11:53:36.260Z,4.994
2023-03-11T11:54:35.957Z,4.981
2023-03-11T11:55:36.813Z,4.951
2023-03-11T11:56:36.122Z,4.960
2023-03-11T11:57:35.746Z,4.943
2023-03-11T11:58:36.096Z,4.931
2023-03-11T11:59:34.903Z,4.969
2023-03-11T12:00:36.462Z,4.968
2023-03-11T12:01:36.793Z,4.945
2023-03-11T12:02:36.731Z,4.941
2023-03-11T12:03:37.343Z,4.965
2023-03-11T12:04:36.057Z,4.929
2023-03-11T12:05:36.925Z,4.934
2023-03-11T12:06:36.274Z,4.928
2023-03-11T12:07:36.288Z,4.975
2023-03-11T12:08:37.225Z,4.978
2023-03-11T12:09:36.433Z,5.027
2023-03-11T12:10:38.081Z,5.051
2023-03-11T12:11:36.242Z,5.019
2023-03-11T12:12:36.047Z,5.041
2023-03-11T12:13:35.773Z,4.975
2023-03-11T12:14:36.381Z,4.974
2023-03-11T12:15:36.090Z,4.966
2023-03-11T12:16:36.082Z,4.964
2023-03-11T12:17:36.110Z,4.993
2023-03-11T12:19:04.523Z,4.992
2023-03-11T12:19:37.355Z,4.975
2023-03-11T12:20:36.825Z,4.956
2023-03-11T12:21:36.597Z,4.934
2023-03-11T12:22:36.292Z,4.914
2023-03-11T12:23:36.301Z,4.928
2023-03-11T12:24:36.228Z,4.920
2023-03-11T12:25:36.929Z,4.908
2023-03-11T12:26:36.473Z,4.934
2023-03-11T12:27:36.629Z,4.958
2023-03-11T12:28:36.433Z,4.996
2023-03-11T12:29:36.351Z,5.026
2023-03-11T12:30:36.441Z,5.051
2023-03-11T12:31:35.995Z,5.083
2023-03-11T12:32:35.436Z,5.066
2023-03-11T12:33:36.305Z,5.074
2023-03-11T12:34:36.957Z,5.088
2023-03-11T12:35:36.659Z,5.059
2023-03-11T12:36:35.993Z,5.050
2023-03-11T12:37:36.223Z,5.013
2023-03-11T12:38:36.283Z,5.026
2023-03-11T12:39:35.725Z,5.051
2023-03-11T12:41:35.928Z,5.096
2023-03-11T12:42:36.744Z,5.101
2023-03-11T12:43:36.902Z,5.110
2023-03-11T12:44:36.929Z,5.105
2023-03-11T12:45:37.344Z,5.136
2023-03-11T12:46:35.731Z,5.135
2023-03-11T12:47:36.776Z,5.144
2023-03-11T12:48:37.404Z,5.143
2023-03-11T12:49:36.356Z,5.148
2023-03-11T12:50:36.756Z,5.159
2023-03-11T12:51:36.830Z,5.128
2023-03-11T12:52:36.573Z,5.079
2023-03-11T12:53:36.539Z,5.071
2023-03-11T12:54:36.264Z,5.036
2023-03-11T12:55:36.423Z,5.031
2023-03-11T12:56:36.323Z,5.101
2023-03-11T12:57:36.640Z,5.105
2023-03-11T12:58:37.421Z,5.178
2023-03-11T12:59:35.712Z,5.216
2023-03-11T13:00:37.305Z,5.224
2023-03-11T13:01:36.969Z,5.168
2023-03-11T13:02:35.397Z,5.088